sensor_id;sensor_type;location;lat;lon;timestamp;P1;durP1;ratioP1;P2;durP2;ratioP2
59374;SDS011;45172;55.006;73.460;2022-12-05T00:03:51;14.30;;;8.10;;
59374;SDS011;45172;55.006;73.460;2022-12-05T00:06:20;10.47;;;6.90;;
59374;SDS011;45172;55.006;73.460;2022-12-05T00:08:46;13.67;;;5.60;;
59374;SDS011;45172;55.006;73.460;2022-12-05T00:11:14;16.87;;;6.20;;
59374;SDS011;45172;55.006;73.460;2022-12-05T00:13:44;12.97;;;5.67;;
59374;SDS011;45172;55.006;73.460;2022-12-05T00:16:17;23.08;;;7.55;;
59374;SDS011;45172;55.006;73.460;2022-12-05T00:18:54;25.07;;;11.60;;
59374;SDS011;45172;55.006;73.460;2022-12-05T00:21:24;15.43;;;5.90;;
59374;SDS011;45172;55.006;73.460;2022-12-05T00:23:51;14.10;;;7.00;;
59374;SDS011;45172;55.006;73.460;2022-12-05T00:26:25;14.60;;;7.23;;
59374;SDS011;45172;55.006;73.460;2022-12-05T00:28:52;28.50;;;13.03;;
59374;SDS011;45172;55.006;73.460;2022-12-05T00:31:29;19.30;;;8.63;;
59374;SDS011;45172;55.006;73.460;2022-12-05T00:34:03;21.53;;;9.33;;
59374;SDS011;45172;55.006;73.460;2022-12-05T00:36:30;17.83;;;8.33;;
59374;SDS011;45172;55.006;73.460;2022-12-05T00:39:02;13.40;;;7.00;;
59374;SDS011;45172;55.006;73.460;2022-12-05T00:41:32;8.77;;;6.10;;
59374;SDS011;45172;55.006;73.460;2022-12-05T00:43:59;9.83;;;7.07;;
59374;SDS011;45172;55.006;73.460;2022-12-05T00:46:27;14.70;;;6.27;;
59374;SDS011;45172;55.006;73.460;2022-12-05T00:48:56;14.53;;;6.70;;
59374;SDS011;45172;55.006;73.460;2022-12-05T00:51:27;17.27;;;8.67;;
59374;SDS011;45172;55.006;73.460;2022-12-05T00:54:10;19.57;;;8.97;;
59374;SDS011;45172;55.006;73.460;2022-12-05T00:56:39;13.20;;;6.67;;
59374;SDS011;45172;55.006;73.460;2022-12-05T00:59:05;9.53;;;7.00;;
59374;SDS011;45172;55.006;73.460;2022-12-05T01:01:33;19.67;;;8.93;;
59374;SDS011;45172;55.006;73.460;2022-12-05T01:04:04;38.13;;;15.90;;
59374;SDS011;45172;55.006;73.460;2022-12-05T01:06:32;22.20;;;8.63;;
59374;SDS011;45172;55.006;73.460;2022-12-05T01:08:59;46.70;;;17.87;;
59374;SDS011;45172;55.006;73.460;2022-12-05T01:11:25;30.40;;;10.13;;
59374;SDS011;45172;55.006;73.460;2022-12-05T01:13:52;24.43;;;12.93;;
59374;SDS011;45172;55.006;73.460;2022-12-05T01:16:26;51.37;;;16.87;;
59374;SDS011;45172;55.006;73.460;2022-12-05T01:19:03;39.53;;;11.97;;
59374;SDS011;45172;55.006;73.460;2022-12-05T01:21:31;20.20;;;12.23;;
59374;SDS011;45172;55.006;73.460;2022-12-05T01:23:58;49.40;;;18.07;;
59374;SDS011;45172;55.006;73.460;2022-12-05T01:26:28;33.80;;;11.50;;
59374;SDS011;45172;55.006;73.460;2022-12-05T01:28:54;12.57;;;8.60;;
59374;SDS011;45172;55.006;73.460;2022-12-05T01:33:51;33.63;;;7.80;;
59374;SDS011;45172;55.006;73.460;2022-12-05T01:36:18;26.67;;;9.27;;
59374;SDS011;45172;55.006;73.460;2022-12-05T01:38:45;21.00;;;8.53;;
59374;SDS011;45172;55.006;73.460;2022-12-05T01:41:12;12.50;;;8.50;;
59374;SDS011;45172;55.006;73.460;2022-12-05T01:43:53;19.13;;;7.07;;
59374;SDS011;45172;55.006;73.460;2022-12-05T01:46:30;16.30;;;7.60;;
59374;SDS011;45172;55.006;73.460;2022-12-05T01:49:00;23.53;;;10.30;;
59374;SDS011;45172;55.006;73.460;2022-12-05T01:51:34;56.40;;;20.13;;
59374;SDS011;45172;55.006;73.460;2022-12-05T01:54:03;67.13;;;19.50;;
59374;SDS011;45172;55.006;73.460;2022-12-05T01:56:31;41.83;;;21.53;;
59374;SDS011;45172;55.006;73.460;2022-12-05T01:58:58;48.00;;;17.77;;
59374;SDS011;45172;55.006;73.460;2022-12-05T02:01:26;21.50;;;13.53;;
59374;SDS011;45172;55.006;73.460;2022-12-05T02:03:55;35.67;;;12.17;;
59374;SDS011;45172;55.006;73.460;2022-12-05T02:06:28;44.40;;;15.93;;
59374;SDS011;45172;55.006;73.460;2022-12-05T02:08:54;44.00;;;16.83;;
59374;SDS011;45172;55.006;73.460;2022-12-05T02:11:24;40.60;;;17.50;;
59374;SDS011;45172;55.006;73.460;2022-12-05T02:19:27;33.83;;;14.27;;
59374;SDS011;45172;55.006;73.460;2022-12-05T02:27:59;17.67;;;10.10;;
59374;SDS011;45172;55.006;73.460;2022-12-05T02:30:39;9.17;;;8.23;;
59374;SDS011;45172;55.006;73.460;2022-12-05T02:36:04;32.67;;;10.23;;
59374;SDS011;45172;55.006;73.460;2022-12-05T02:46:39;25.10;;;11.93;;
59374;SDS011;45172;55.006;73.460;2022-12-05T02:49:09;27.17;;;10.20;;
59374;SDS011;45172;55.006;73.460;2022-12-05T02:51:54;30.13;;;13.20;;
59374;SDS011;45172;55.006;73.460;2022-12-05T02:54:24;17.37;;;9.53;;
59374;SDS011;45172;55.006;73.460;2022-12-05T02:56:53;57.60;;;13.33;;
59374;SDS011;45172;55.006;73.460;2022-12-05T02:59:22;17.10;;;11.13;;
59374;SDS011;45172;55.006;73.460;2022-12-05T03:01:58;61.27;;;21.47;;
59374;SDS011;45172;55.006;73.460;2022-12-05T03:04:24;42.27;;;15.43;;
59374;SDS011;45172;55.006;73.460;2022-12-05T03:07:06;21.63;;;11.73;;
59374;SDS011;45172;55.006;73.460;2022-12-05T03:09:44;33.37;;;13.50;;
59374;SDS011;45172;55.006;73.460;2022-12-05T03:12:19;61.23;;;18.80;;
59374;SDS011;45172;55.006;73.460;2022-12-05T03:15:11;40.77;;;17.30;;
59374;SDS011;45172;55.006;73.460;2022-12-05T03:17:43;37.03;;;17.45;;
59374;SDS011;45172;55.006;73.460;2022-12-05T03:20:21;22.10;;;11.23;;
59374;SDS011;45172;55.006;73.460;2022-12-05T03:28:31;50.23;;;17.77;;
59374;SDS011;45172;55.006;73.460;2022-12-05T03:31:04;74.83;;;26.37;;
59374;SDS011;45172;55.006;73.460;2022-12-05T03:33:46;43.90;;;17.70;;
59374;SDS011;45172;55.006;73.460;2022-12-05T03:38:57;10.43;;;7.00;;
59374;SDS011;45172;55.006;73.460;2022-12-05T03:41:58;33.67;;;16.10;;
59374;SDS011;45172;55.006;73.460;2022-12-05T03:44:36;33.77;;;17.30;;
59374;SDS011;45172;55.006;73.460;2022-12-05T03:47:13;29.67;;;16.33;;
59374;SDS011;45172;55.006;73.460;2022-12-05T03:49:44;27.60;;;16.73;;
59374;SDS011;45172;55.006;73.460;2022-12-05T03:54:46;54.77;;;26.67;;
59374;SDS011;45172;55.006;73.460;2022-12-05T03:57:22;79.28;;;29.90;;
59374;SDS011;45172;55.006;73.460;2022-12-05T03:59:59;83.00;;;29.13;;
59374;SDS011;45172;55.006;73.460;2022-12-05T04:05:29;48.37;;;22.03;;
59374;SDS011;45172;55.006;73.460;2022-12-05T04:10:47;52.73;;;14.77;;
59374;SDS011;45172;55.006;73.460;2022-12-05T04:13:27;47.00;;;15.33;;
59374;SDS011;45172;55.006;73.460;2022-12-05T04:16:23;29.00;;;13.40;;
59374;SDS011;45172;55.006;73.460;2022-12-05T04:19:14;35.33;;;15.10;;
59374;SDS011;45172;55.006;73.460;2022-12-05T04:22:22;18.57;;;10.30;;
59374;SDS011;45172;55.006;73.460;2022-12-05T04:24:49;20.43;;;9.83;;
59374;SDS011;45172;55.006;73.460;2022-12-05T04:27:47;7.43;;;6.23;;
59374;SDS011;45172;55.006;73.460;2022-12-05T04:30:21;26.07;;;13.77;;
59374;SDS011;45172;55.006;73.460;2022-12-05T04:32:56;34.27;;;14.57;;
59374;SDS011;45172;55.006;73.460;2022-12-05T04:35:31;35.63;;;15.83;;
59374;SDS011;45172;55.006;73.460;2022-12-05T04:38:14;15.73;;;11.47;;
59374;SDS011;45172;55.006;73.460;2022-12-05T04:41:02;8.07;;;6.30;;
59374;SDS011;45172;55.006;73.460;2022-12-05T04:43:32;16.00;;;8.37;;
59374;SDS011;45172;55.006;73.460;2022-12-05T04:46:03;13.00;;;8.87;;
59374;SDS011;45172;55.006;73.460;2022-12-05T04:48:41;19.97;;;9.90;;
59374;SDS011;45172;55.006;73.460;2022-12-05T04:51:11;37.63;;;13.70;;
59374;SDS011;45172;55.006;73.460;2022-12-05T04:53:53;48.43;;;17.77;;
59374;SDS011;45172;55.006;73.460;2022-12-05T04:56:35;35.13;;;10.50;;
59374;SDS011;45172;55.006;73.460;2022-12-05T04:59:03;44.67;;;15.90;;
59374;SDS011;45172;55.006;73.460;2022-12-05T05:01:32;7.40;;;4.40;;
59374;SDS011;45172;55.006;73.460;2022-12-05T05:04:18;36.40;;;11.60;;
59374;SDS011;45172;55.006;73.460;2022-12-05T05:06:48;29.60;;;14.30;;
59374;SDS011;45172;55.006;73.460;2022-12-05T05:09:14;31.23;;;14.87;;
59374;SDS011;45172;55.006;73.460;2022-12-05T05:11:40;42.13;;;15.33;;
59374;SDS011;45172;55.006;73.460;2022-12-05T05:14:06;74.57;;;14.83;;
59374;SDS011;45172;55.006;73.460;2022-12-05T05:16:33;47.83;;;21.53;;
59374;SDS011;45172;55.006;73.460;2022-12-05T05:19:01;52.40;;;15.73;;
59374;SDS011;45172;55.006;73.460;2022-12-05T05:21:29;56.60;;;18.17;;
59374;SDS011;45172;55.006;73.460;2022-12-05T05:23:59;76.23;;;25.17;;
59374;SDS011;45172;55.006;73.460;2022-12-05T05:26:26;73.40;;;21.03;;
59374;SDS011;45172;55.006;73.460;2022-12-05T05:28:53;116.13;;;29.97;;
59374;SDS011;45172;55.006;73.460;2022-12-05T05:31:19;137.73;;;50.27;;
59374;SDS011;45172;55.006;73.460;2022-12-05T05:33:49;59.37;;;20.13;;
59374;SDS011;45172;55.006;73.460;2022-12-05T05:36:17;38.75;;;13.05;;
59374;SDS011;45172;55.006;73.460;2022-12-05T05:38:44;18.23;;;9.67;;
59374;SDS011;45172;55.006;73.460;2022-12-05T05:41:16;52.60;;;16.33;;
59374;SDS011;45172;55.006;73.460;2022-12-05T05:43:51;24.23;;;10.00;;
59374;SDS011;45172;55.006;73.460;2022-12-05T05:46:29;24.10;;;11.93;;
59374;SDS011;45172;55.006;73.460;2022-12-05T05:48:58;2.83;;;2.63;;
59374;SDS011;45172;55.006;73.460;2022-12-05T05:51:24;27.25;;;10.63;;
59374;SDS011;45172;55.006;73.460;2022-12-05T05:53:52;45.20;;;15.60;;
59374;SDS011;45172;55.006;73.460;2022-12-05T05:56:23;60.80;;;20.50;;
59374;SDS011;45172;55.006;73.460;2022-12-05T05:58:58;53.00;;;13.82;;
59374;SDS011;45172;55.006;73.460;2022-12-05T06:01:31;39.50;;;11.18;;
59374;SDS011;45172;55.006;73.460;2022-12-05T06:03:59;23.50;;;8.73;;
59374;SDS011;45172;55.006;73.460;2022-12-05T06:06:26;22.85;;;10.63;;
59374;SDS011;45172;55.006;73.460;2022-12-05T06:08:52;40.50;;;14.48;;
59374;SDS011;45172;55.006;73.460;2022-12-05T06:11:20;37.65;;;11.80;;
59374;SDS011;45172;55.006;73.460;2022-12-05T06:13:57;46.25;;;14.95;;
59374;SDS011;45172;55.006;73.460;2022-12-05T06:16:29;32.75;;;12.43;;
59374;SDS011;45172;55.006;73.460;2022-12-05T06:18:56;66.18;;;22.08;;
59374;SDS011;45172;55.006;73.460;2022-12-05T06:21:23;59.50;;;18.88;;
59374;SDS011;45172;55.006;73.460;2022-12-05T06:23:49;43.63;;;16.40;;
59374;SDS011;45172;55.006;73.460;2022-12-05T06:26:16;72.97;;;24.90;;
59374;SDS011;45172;55.006;73.460;2022-12-05T06:28:49;65.38;;;18.27;;
59374;SDS011;45172;55.006;73.460;2022-12-05T06:31:21;60.92;;;22.45;;
59374;SDS011;45172;55.006;73.460;2022-12-05T06:33:48;47.28;;;18.35;;
59374;SDS011;45172;55.006;73.460;2022-12-05T06:36:15;82.43;;;21.45;;
59374;SDS011;45172;55.006;73.460;2022-12-05T06:38:44;44.63;;;13.20;;
59374;SDS011;45172;55.006;73.460;2022-12-05T06:41:11;42.25;;;15.48;;
59374;SDS011;45172;55.006;73.460;2022-12-05T06:43:41;24.58;;;9.38;;
59374;SDS011;45172;55.006;73.460;2022-12-05T06:46:08;50.60;;;16.23;;
59374;SDS011;45172;55.006;73.460;2022-12-05T06:48:36;35.97;;;14.65;;
59374;SDS011;45172;55.006;73.460;2022-12-05T06:51:13;60.28;;;18.77;;
59374;SDS011;45172;55.006;73.460;2022-12-05T06:53:41;100.55;;;27.08;;
59374;SDS011;45172;55.006;73.460;2022-12-05T06:56:12;90.38;;;28.20;;
59374;SDS011;45172;55.006;73.460;2022-12-05T06:58:40;78.35;;;19.33;;
59374;SDS011;45172;55.006;73.460;2022-12-05T07:01:14;55.65;;;19.02;;
59374;SDS011;45172;55.006;73.460;2022-12-05T07:06:37;60.08;;;20.85;;
59374;SDS011;45172;55.006;73.460;2022-12-05T07:09:04;30.38;;;14.65;;
59374;SDS011;45172;55.006;73.460;2022-12-05T07:11:31;49.35;;;16.85;;
59374;SDS011;45172;55.006;73.460;2022-12-05T07:13:57;63.42;;;21.23;;
59374;SDS011;45172;55.006;73.460;2022-12-05T07:16:29;58.80;;;20.08;;
59374;SDS011;45172;55.006;73.460;2022-12-05T07:18:55;59.88;;;19.77;;
59374;SDS011;45172;55.006;73.460;2022-12-05T07:21:28;53.70;;;15.18;;
59374;SDS011;45172;55.006;73.460;2022-12-05T07:23:54;49.50;;;18.05;;
59374;SDS011;45172;55.006;73.460;2022-12-05T07:26:21;70.30;;;21.25;;
59374;SDS011;45172;55.006;73.460;2022-12-05T07:31:21;29.50;;;10.35;;
59374;SDS011;45172;55.006;73.460;2022-12-05T07:33:48;38.95;;;13.55;;
59374;SDS011;45172;55.006;73.460;2022-12-05T07:36:15;42.80;;;15.80;;
59374;SDS011;45172;55.006;73.460;2022-12-05T07:38:43;40.47;;;15.30;;
59374;SDS011;45172;55.006;73.460;2022-12-05T07:41:13;35.97;;;14.30;;
59374;SDS011;45172;55.006;73.460;2022-12-05T07:43:53;41.00;;;12.75;;
59374;SDS011;45172;55.006;73.460;2022-12-05T07:46:21;18.67;;;7.18;;
59374;SDS011;45172;55.006;73.460;2022-12-05T07:48:48;52.17;;;16.85;;
59374;SDS011;45172;55.006;73.460;2022-12-05T07:51:16;26.98;;;11.00;;
59374;SDS011;45172;55.006;73.460;2022-12-05T07:53:43;31.75;;;11.82;;
59374;SDS011;45172;55.006;73.460;2022-12-05T07:56:13;28.92;;;11.25;;
59374;SDS011;45172;55.006;73.460;2022-12-05T07:58:43;38.92;;;12.90;;
59374;SDS011;45172;55.006;73.460;2022-12-05T08:01:12;34.58;;;9.73;;
59374;SDS011;45172;55.006;73.460;2022-12-05T08:03:44;47.25;;;16.83;;
59374;SDS011;45172;55.006;73.460;2022-12-05T08:06:21;48.83;;;17.25;;
59374;SDS011;45172;55.006;73.460;2022-12-05T08:08:49;62.63;;;21.25;;
59374;SDS011;45172;55.006;73.460;2022-12-05T08:11:17;53.65;;;17.75;;
59374;SDS011;45172;55.006;73.460;2022-12-05T08:13:45;60.13;;;20.20;;
59374;SDS011;45172;55.006;73.460;2022-12-05T08:16:13;70.10;;;20.83;;
59374;SDS011;45172;55.006;73.460;2022-12-05T08:18:41;69.30;;;19.10;;
59374;SDS011;45172;55.006;73.460;2022-12-05T08:21:17;30.20;;;11.77;;
59374;SDS011;45172;55.006;73.460;2022-12-05T08:23:44;58.58;;;20.67;;
59374;SDS011;45172;55.006;73.460;2022-12-05T08:26:15;30.38;;;13.95;;
59374;SDS011;45172;55.006;73.460;2022-12-05T08:28:45;79.68;;;21.77;;
59374;SDS011;45172;55.006;73.460;2022-12-05T08:31:20;56.92;;;20.17;;
59374;SDS011;45172;55.006;73.460;2022-12-05T08:33:48;53.55;;;17.48;;
59374;SDS011;45172;55.006;73.460;2022-12-05T08:36:26;59.08;;;19.67;;
59374;SDS011;45172;55.006;73.460;2022-12-05T08:39:01;35.70;;;14.02;;
59374;SDS011;45172;55.006;73.460;2022-12-05T08:41:29;30.58;;;11.55;;
59374;SDS011;45172;55.006;73.460;2022-12-05T08:43:57;41.85;;;16.13;;
59374;SDS011;45172;55.006;73.460;2022-12-05T08:46:25;36.45;;;14.73;;
59374;SDS011;45172;55.006;73.460;2022-12-05T08:48:51;32.05;;;14.40;;
59374;SDS011;45172;55.006;73.460;2022-12-05T08:51:17;41.50;;;13.23;;
59374;SDS011;45172;55.006;73.460;2022-12-05T08:53:43;43.58;;;15.13;;
59374;SDS011;45172;55.006;73.460;2022-12-05T08:56:09;48.97;;;14.73;;
59374;SDS011;45172;55.006;73.460;2022-12-05T08:58:46;44.67;;;13.68;;
59374;SDS011;45172;55.006;73.460;2022-12-05T09:01:12;37.33;;;14.40;;
59374;SDS011;45172;55.006;73.460;2022-12-05T09:03:41;41.50;;;13.50;;
59374;SDS011;45172;55.006;73.460;2022-12-05T09:08:35;59.05;;;13.73;;
59374;SDS011;45172;55.006;73.460;2022-12-05T09:11:09;49.90;;;16.77;;
59374;SDS011;45172;55.006;73.460;2022-12-05T09:13:47;66.47;;;20.67;;
59374;SDS011;45172;55.006;73.460;2022-12-05T09:16:15;51.65;;;18.83;;
59374;SDS011;45172;55.006;73.460;2022-12-05T09:18:43;49.25;;;18.38;;
59374;SDS011;45172;55.006;73.460;2022-12-05T09:21:18;61.70;;;19.30;;
59374;SDS011;45172;55.006;73.460;2022-12-05T09:23:46;49.47;;;17.40;;
59374;SDS011;45172;55.006;73.460;2022-12-05T09:26:14;35.83;;;14.35;;
59374;SDS011;45172;55.006;73.460;2022-12-05T09:28:43;35.53;;;13.10;;
59374;SDS011;45172;55.006;73.460;2022-12-05T09:31:10;36.83;;;13.18;;
59374;SDS011;45172;55.006;73.460;2022-12-05T09:33:39;26.67;;;11.80;;
59374;SDS011;45172;55.006;73.460;2022-12-05T09:36:07;44.88;;;11.82;;
59374;SDS011;45172;55.006;73.460;2022-12-05T09:38:42;26.13;;;11.35;;
59374;SDS011;45172;55.006;73.460;2022-12-05T09:44:15;30.83;;;10.25;;
59374;SDS011;45172;55.006;73.460;2022-12-05T09:47:22;36.10;;;10.60;;
59374;SDS011;45172;55.006;73.460;2022-12-05T09:50:19;33.50;;;11.30;;
59374;SDS011;45172;55.006;73.460;2022-12-05T09:55:54;38.88;;;16.75;;
59374;SDS011;45172;55.006;73.460;2022-12-05T10:01:21;70.68;;;23.77;;
59374;SDS011;45172;55.006;73.460;2022-12-05T10:07:29;65.53;;;21.75;;
59374;SDS011;45172;55.006;73.460;2022-12-05T10:10:23;62.92;;;19.20;;
59374;SDS011;45172;55.006;73.460;2022-12-05T10:12:53;58.95;;;20.05;;
59374;SDS011;45172;55.006;73.460;2022-12-05T10:15:45;47.88;;;19.38;;
59374;SDS011;45172;55.006;73.460;2022-12-05T10:21:29;48.35;;;17.83;;
59374;SDS011;45172;55.006;73.460;2022-12-05T10:23:57;57.92;;;18.10;;
59374;SDS011;45172;55.006;73.460;2022-12-05T10:31:46;45.85;;;17.80;;
59374;SDS011;45172;55.006;73.460;2022-12-05T10:34:27;44.95;;;13.75;;
59374;SDS011;45172;55.006;73.460;2022-12-05T10:37:15;42.95;;;15.82;;
59374;SDS011;45172;55.006;73.460;2022-12-05T10:39:44;32.53;;;12.73;;
59374;SDS011;45172;55.006;73.460;2022-12-05T10:42:14;37.75;;;14.43;;
59374;SDS011;45172;55.006;73.460;2022-12-05T10:45:07;36.20;;;12.68;;
59374;SDS011;45172;55.006;73.460;2022-12-05T10:47:39;34.45;;;14.15;;
59374;SDS011;45172;55.006;73.460;2022-12-05T10:50:07;35.22;;;13.15;;
59374;SDS011;45172;55.006;73.460;2022-12-05T10:52:49;42.47;;;13.20;;
59374;SDS011;45172;55.006;73.460;2022-12-05T10:55:17;34.28;;;12.50;;
59374;SDS011;45172;55.006;73.460;2022-12-05T10:57:48;43.85;;;14.70;;
59374;SDS011;45172;55.006;73.460;2022-12-05T11:00:18;45.65;;;14.98;;
59374;SDS011;45172;55.006;73.460;2022-12-05T11:02:47;55.47;;;16.58;;
59374;SDS011;45172;55.006;73.460;2022-12-05T11:05:14;57.05;;;19.10;;
59374;SDS011;45172;55.006;73.460;2022-12-05T11:10:19;76.82;;;26.67;;
59374;SDS011;45172;55.006;73.460;2022-12-05T11:12:58;114.22;;;32.78;;
59374;SDS011;45172;55.006;73.460;2022-12-05T11:15:37;66.35;;;25.17;;
59374;SDS011;45172;55.006;73.460;2022-12-05T11:18:21;88.47;;;25.88;;
59374;SDS011;45172;55.006;73.460;2022-12-05T11:21:08;77.03;;;24.83;;
59374;SDS011;45172;55.006;73.460;2022-12-05T11:23:36;127.25;;;29.42;;
59374;SDS011;45172;55.006;73.460;2022-12-05T11:26:05;100.38;;;28.17;;
59374;SDS011;45172;55.006;73.460;2022-12-05T11:29:04;101.95;;;35.35;;
59374;SDS011;45172;55.006;73.460;2022-12-05T11:31:59;112.00;;;29.58;;
59374;SDS011;45172;55.006;73.460;2022-12-05T11:34:38;71.95;;;24.65;;
59374;SDS011;45172;55.006;73.460;2022-12-05T11:37:12;62.67;;;23.65;;
59374;SDS011;45172;55.006;73.460;2022-12-05T11:39:48;87.53;;;27.67;;
59374;SDS011;45172;55.006;73.460;2022-12-05T11:42:35;115.45;;;31.10;;
59374;SDS011;45172;55.006;73.460;2022-12-05T11:50:39;157.35;;;43.67;;
59374;SDS011;45172;55.006;73.460;2022-12-05T11:59:00;110.13;;;37.70;;
59374;SDS011;45172;55.006;73.460;2022-12-05T12:05:12;100.03;;;32.80;;
59374;SDS011;45172;55.006;73.460;2022-12-05T12:21:47;92.53;;;28.55;;
59374;SDS011;45172;55.006;73.460;2022-12-05T12:24:36;57.97;;;24.17;;
59374;SDS011;45172;55.006;73.460;2022-12-05T12:30:06;89.47;;;26.10;;
59374;SDS011;45172;55.006;73.460;2022-12-05T12:40:52;64.72;;;23.80;;
59374;SDS011;45172;55.006;73.460;2022-12-05T12:43:31;108.07;;;21.95;;
59374;SDS011;45172;55.006;73.460;2022-12-05T12:46:20;63.85;;;19.20;;
59374;SDS011;45172;55.006;73.460;2022-12-05T12:52:01;75.38;;;25.90;;
59374;SDS011;45172;55.006;73.460;2022-12-05T13:00:10;161.35;;;38.28;;
59374;SDS011;45172;55.006;73.460;2022-12-05T13:08:33;184.82;;;50.53;;
59374;SDS011;45172;55.006;73.460;2022-12-05T13:10:55;197.85;;;53.63;;
59374;SDS011;45172;55.006;73.460;2022-12-05T13:13:30;188.02;;;55.33;;
59374;SDS011;45172;55.006;73.460;2022-12-05T13:16:02;188.70;;;54.30;;
59374;SDS011;45172;55.006;73.460;2022-12-05T13:18:32;192.45;;;57.13;;
59374;SDS011;45172;55.006;73.460;2022-12-05T13:20:59;166.93;;;50.83;;
59374;SDS011;45172;55.006;73.460;2022-12-05T13:23:30;188.75;;;57.80;;
59374;SDS011;45172;55.006;73.460;2022-12-05T13:25:59;197.15;;;57.22;;
59374;SDS011;45172;55.006;73.460;2022-12-05T13:28:33;194.77;;;61.25;;
59374;SDS011;45172;55.006;73.460;2022-12-05T13:31:34;212.02;;;63.65;;
59374;SDS011;45172;55.006;73.460;2022-12-05T13:34:01;203.77;;;64.53;;
59374;SDS011;45172;55.006;73.460;2022-12-05T13:36:27;271.17;;;82.78;;
59374;SDS011;45172;55.006;73.460;2022-12-05T13:39:23;230.07;;;69.97;;
59374;SDS011;45172;55.006;73.460;2022-12-05T13:42:20;246.52;;;68.10;;
59374;SDS011;45172;55.006;73.460;2022-12-05T13:55:58;205.77;;;55.92;;
59374;SDS011;45172;55.006;73.460;2022-12-05T13:58:55;216.75;;;66.68;;
59374;SDS011;45172;55.006;73.460;2022-12-05T14:23:31;213.48;;;65.65;;
59374;SDS011;45172;55.006;73.460;2022-12-05T14:29:31;236.82;;;71.75;;
59374;SDS011;45172;55.006;73.460;2022-12-05T14:37:34;281.15;;;85.38;;
59374;SDS011;45172;55.006;73.460;2022-12-05T14:40:03;252.95;;;79.40;;
59374;SDS011;45172;55.006;73.460;2022-12-05T14:42:52;270.52;;;84.28;;
59374;SDS011;45172;55.006;73.460;2022-12-05T14:45:33;284.10;;;89.05;;
59374;SDS011;45172;55.006;73.460;2022-12-05T14:56:47;327.40;;;99.07;;
59374;SDS011;45172;55.006;73.460;2022-12-05T14:59:29;283.05;;;92.07;;
59374;SDS011;45172;55.006;73.460;2022-12-05T15:01:59;346.52;;;110.50;;
59374;SDS011;45172;55.006;73.460;2022-12-05T15:04:47;302.80;;;92.85;;
59374;SDS011;45172;55.006;73.460;2022-12-05T15:07:34;292.15;;;92.38;;
59374;SDS011;45172;55.006;73.460;2022-12-05T15:12:47;303.80;;;94.03;;
59374;SDS011;45172;55.006;73.460;2022-12-05T15:15:18;303.27;;;94.65;;
59374;SDS011;45172;55.006;73.460;2022-12-05T15:20:32;233.27;;;69.55;;
59374;SDS011;45172;55.006;73.460;2022-12-05T15:26:21;188.82;;;59.13;;
59374;SDS011;45172;55.006;73.460;2022-12-05T15:31:49;279.00;;;85.00;;
59374;SDS011;45172;55.006;73.460;2022-12-05T15:36:59;238.23;;;70.55;;
59374;SDS011;45172;55.006;73.460;2022-12-05T15:39:29;246.25;;;73.82;;
59374;SDS011;45172;55.006;73.460;2022-12-05T15:42:22;182.35;;;60.70;;
59374;SDS011;45172;55.006;73.460;2022-12-05T15:47:49;243.77;;;78.03;;
59374;SDS011;45172;55.006;73.460;2022-12-05T15:52:59;219.30;;;65.40;;
59374;SDS011;45172;55.006;73.460;2022-12-05T15:55:47;180.43;;;54.88;;
59374;SDS011;45172;55.006;73.460;2022-12-05T16:03:59;185.50;;;53.95;;
59374;SDS011;45172;55.006;73.460;2022-12-05T16:06:30;151.40;;;49.38;;
59374;SDS011;45172;55.006;73.460;2022-12-05T16:08:57;168.98;;;53.85;;
59374;SDS011;45172;55.006;73.460;2022-12-05T16:11:25;196.93;;;59.83;;
59374;SDS011;45172;55.006;73.460;2022-12-05T16:13:56;123.43;;;41.50;;
59374;SDS011;45172;55.006;73.460;2022-12-05T16:16:35;145.48;;;45.08;;
59374;SDS011;45172;55.006;73.460;2022-12-05T16:19:24;177.13;;;40.40;;
59374;SDS011;45172;55.006;73.460;2022-12-05T16:22:00;201.90;;;48.88;;
59374;SDS011;45172;55.006;73.460;2022-12-05T16:24:37;142.38;;;42.97;;
59374;SDS011;45172;55.006;73.460;2022-12-05T16:27:16;184.40;;;54.30;;
59374;SDS011;45172;55.006;73.460;2022-12-05T16:30:04;163.20;;;49.10;;
59374;SDS011;45172;55.006;73.460;2022-12-05T16:32:31;159.93;;;48.47;;
59374;SDS011;45172;55.006;73.460;2022-12-05T16:35:29;204.70;;;50.38;;
59374;SDS011;45172;55.006;73.460;2022-12-05T16:38:11;231.00;;;54.72;;
59374;SDS011;45172;55.006;73.460;2022-12-05T16:41:00;253.90;;;60.50;;
59374;SDS011;45172;55.006;73.460;2022-12-05T16:48:38;196.77;;;52.88;;
59374;SDS011;45172;55.006;73.460;2022-12-05T16:58:49;200.93;;;51.63;;
59374;SDS011;45172;55.006;73.460;2022-12-05T17:01:17;181.77;;;50.13;;
59374;SDS011;45172;55.006;73.460;2022-12-05T17:03:45;235.90;;;54.55;;
59374;SDS011;45172;55.006;73.460;2022-12-05T17:06:11;249.77;;;52.90;;
59374;SDS011;45172;55.006;73.460;2022-12-05T17:08:39;247.98;;;67.65;;
59374;SDS011;45172;55.006;73.460;2022-12-05T17:13:44;298.02;;;84.75;;
59374;SDS011;45172;55.006;73.460;2022-12-05T17:16:13;322.57;;;81.53;;
59374;SDS011;45172;55.006;73.460;2022-12-05T17:18:40;252.85;;;72.25;;
59374;SDS011;45172;55.006;73.460;2022-12-05T17:21:09;249.73;;;65.33;;
59374;SDS011;45172;55.006;73.460;2022-12-05T17:24:01;320.77;;;92.00;;
59374;SDS011;45172;55.006;73.460;2022-12-05T17:26:27;208.82;;;57.58;;
59374;SDS011;45172;55.006;73.460;2022-12-05T17:28:54;192.10;;;54.38;;
59374;SDS011;45172;55.006;73.460;2022-12-05T17:31:21;268.07;;;76.63;;
59374;SDS011;45172;55.006;73.460;2022-12-05T17:33:49;161.98;;;40.58;;
59374;SDS011;45172;55.006;73.460;2022-12-05T17:36:17;123.65;;;33.42;;
59374;SDS011;45172;55.006;73.460;2022-12-05T17:38:46;222.63;;;59.83;;
59374;SDS011;45172;55.006;73.460;2022-12-05T17:41:16;154.43;;;44.38;;
59374;SDS011;45172;55.006;73.460;2022-12-05T17:43:44;165.20;;;43.42;;
59374;SDS011;45172;55.006;73.460;2022-12-05T17:46:17;169.60;;;42.40;;
59374;SDS011;45172;55.006;73.460;2022-12-05T17:48:45;100.20;;;35.65;;
59374;SDS011;45172;55.006;73.460;2022-12-05T17:51:11;187.23;;;51.17;;
59374;SDS011;45172;55.006;73.460;2022-12-05T17:53:39;171.67;;;48.13;;
59374;SDS011;45172;55.006;73.460;2022-12-05T17:56:17;96.90;;;31.90;;
59374;SDS011;45172;55.006;73.460;2022-12-05T17:58:43;114.40;;;33.85;;
59374;SDS011;45172;55.006;73.460;2022-12-05T18:01:20;193.73;;;58.27;;
59374;SDS011;45172;55.006;73.460;2022-12-05T18:03:47;209.60;;;65.72;;
59374;SDS011;45172;55.006;73.460;2022-12-05T18:06:13;179.33;;;51.40;;
59374;SDS011;45172;55.006;73.460;2022-12-05T18:08:50;219.83;;;62.83;;
59374;SDS011;45172;55.006;73.460;2022-12-05T18:11:27;180.50;;;56.37;;
59374;SDS011;45172;55.006;73.460;2022-12-05T18:13:53;171.13;;;57.53;;
59374;SDS011;45172;55.006;73.460;2022-12-05T18:16:19;265.70;;;76.67;;
59374;SDS011;45172;55.006;73.460;2022-12-05T18:18:55;212.13;;;59.37;;
59374;SDS011;45172;55.006;73.460;2022-12-05T18:21:22;181.40;;;52.50;;